Time,TemperatureF,DewpointF,PressureIn,WindDirection,WindDirectionDegrees,WindSpeedMPH,WindSpeedGustMPH,Humidity,HourlyPrecipIn,Conditions,Clouds,dailyrainin,SolarRadiationWatts/m^2,SoftwareType,DateUTC
2013-02-21 00:03:00,-2.2,-8.5,30.51,NE,54,3.5,3.5,74,0.00,CLR,BKN,0.00,0.0,WeatherDisplay:10.37,2013-02-21 06:03:00,
2013-02-21 00:08:00,-2.4,-8.7,30.51,NE,54,3.5,3.5,74,0.00,CLR,BKN,0.00,0.0,WeatherDisplay:10.37,2013-02-21 06:08:00,
2013-02-21 00:13:00,-2.6,-8.8,30.51,NE,54,3.5,3.5,74,0.00,CLR,BKN,0.00,0.0,WeatherDisplay:10.37,2013-02-21 06:13:00,
2013-02-21 00:19:00,-2.8,-9.0,30.51,NE,54,4.0,4.0,74,0.00,CLR,BKN,0.00,0.0,WeatherDisplay:10.37,2013-02-21 06:19:00,
2013-02-21 00:24:00,-3.3,-9.5,30.52,NE,53,4.0,4.0,74,0.00,CLR,BKN,0.00,0.0,WeatherDisplay:10.37,2013-02-21 06:24:00,
2013-02-21 00:29:00,-3.5,-9.7,30.52,NE,50,3.5,3.5,74,0.00,CLR,BKN,0.00,0.0,WeatherDisplay:10.37,2013-02-21 06:29:00,
2013-02-21 00:34:00,-3.5,-9.7,30.52,NE,48,3.5,3.5,74,0.00,CLR,BKN,0.00,0.0,WeatherDisplay:10.37,2013-02-21 06:34:00,
2013-02-21 00:39:00,-3.7,-9.6,30.52,NE,48,3.5,3.5,75,0.00,CLR,BKN,0.00,0.0,WeatherDisplay:10.37,2013-02-21 06:39:00,
2013-02-21 00:44:00,-3.9,-9.8,30.53,NE,48,3.5,3.5,75,0.00,CLR,BKN,0.00,0.0,WeatherDisplay:10.37,2013-02-21 06:44:00,
2013-02-21 00:49:00,-4.1,-10.0,30.53,NE,48,4.0,4.0,75,0.00,CLR,BKN,0.00,0.0,WeatherDisplay:10.37,2013-02-21 06:49:00,
2013-02-21 00:55:00,-4.1,-10.3,30.53,NE,47,3.5,3.5,74,0.00,CLR,BKN,0.00,0.0,WeatherDisplay:10.37,2013-02-21 06:55:00,
2013-02-21 01:00:00,-4.3,-10.5,30.54,NE,47,2.0,4.0,74,0.00,CLR,BKN,0.00,0.0,WeatherDisplay:10.37,2013-02-21 07:00:00,
2013-02-21 01:05:00,-4.6,-10.8,30.54,NE,47,2.3,2.3,74,0.00,CLR,BKN,0.00,0.0,WeatherDisplay:10.37,2013-02-21 07:05:00,
2013-02-21 01:10:00,-4.8,-11.0,30.54,NE,47,3.0,3.0,74,0.00,CLR,BKN,0.00,0.0,WeatherDisplay:10.37,2013-02-21 07:10:00,
2013-02-21 01:15:00,-5.0,-11.2,30.55,NE,47,3.5,3.5,74,0.00,CLR,BKN,0.00,0.0,WeatherDisplay:10.37,2013-02-21 07:15:00,
2013-02-21 01:20:00,-5.0,-11.4,30.55,NE,47,3.5,3.5,73,0.00,CLR,BKN,0.00,0.0,WeatherDisplay:10.37,2013-02-21 07:20:00,
2013-02-21 01:25:00,-5.2,-11.6,30.55,NE,47,3.5,3.5,73,0.00,CLR,BKN,0.00,0.0,WeatherDisplay:10.37,2013-02-21 07:25:00,
2013-02-21 01:30:00,-5.4,-11.8,30.55,NE,45,4.6,4.6,73,0.00,CLR,BKN,0.00,0.0,WeatherDisplay:10.37,2013-02-21 07:30:00,
2013-02-21 01:36:00,-5.6,-12.0,30.55,NE,44,5.8,5.8,73,0.00,CLR,BKN,0.00,0.0,WeatherDisplay:10.37,2013-02-21 07:36:00,
2013-02-21 01:41:00,-5.6,-12.0,30.55,NE,37,5.8,5.8,73,0.00,CLR,BKN,0.00,0.0,WeatherDisplay:10.37,2013-02-21 07:41:00,
2013-02-21 01:46:00,-5.9,-12.0,30.54,NE,37,5.0,5.0,74,0.00,CLR,BKN,0.00,0.0,WeatherDisplay:10.37,2013-02-21 07:46:00,
2013-02-21 01:51:00,-6.1,-12.2,30.55,NE,41,5.0,5.0,74,0.00,CLR,BKN,0.00,0.0,WeatherDisplay:10.37,2013-02-21 07:51:00,
2013-02-21 01:56:00,-6.1,-12.2,30.55,NE,42,4.6,4.6,74,0.00,CLR,BKN,0.00,0.0,WeatherDisplay:10.37,2013-02-21 07:56:00,
2013-02-21 02:01:00,-6.1,-12.2,30.55,NE,42,3.5,3.5,74,0.00,CLR,BKN,0.00,0.0,WeatherDisplay:10.37,2013-02-21 08:01:00,
2013-02-21 02:06:00,-6.3,-12.4,30.55,NE,42,4.0,4.0,74,0.00,CLR,BKN,0.00,0.0,WeatherDisplay:10.37,2013-02-21 08:06:00,
2013-02-21 02:12:00,-6.3,-12.4,30.54,NE,42,3.5,3.5,74,0.00,CLR,BKN,0.00,0.0,WeatherDisplay:10.37,2013-02-21 08:12:00,
2013-02-21 02:17:00,-6.5,-12.6,30.54,NE,44,5.0,5.0,74,0.00,CLR,BKN,0.00,0.0,WeatherDisplay:10.37,2013-02-21 08:17:00,
2013-02-21 02:22:00,-6.5,-12.6,30.54,NE,46,4.6,4.6,74,0.00,CLR,BKN,0.00,0.0,WeatherDisplay:10.37,2013-02-21 08:22:00,
2013-02-21 02:27:00,-6.8,-12.9,30.54,NE,45,5.0,5.0,74,0.00,CLR,BKN,0.00,0.0,WeatherDisplay:10.37,2013-02-21 08:27:00,
2013-02-21 02:32:00,-6.8,-12.9,30.54,NE,46,5.8,5.8,74,0.00,CLR,BKN,0.00,0.0,WeatherDisplay:10.37,2013-02-21 08:32:00,
2013-02-21 02:37:00,-7.0,-13.4,30.54,NE,46,5.0,5.0,73,0.00,CLR,BKN,0.00,0.0,WeatherDisplay:10.37,2013-02-21 08:37:00,
2013-02-21 02:42:00,-7.0,-13.1,30.54,NE,44,5.0,5.0,74,0.00,CLR,BKN,0.00,0.0,WeatherDisplay:10.37,2013-02-21 08:42:00,
2013-02-21 02:47:00,-7.2,-13.3,30.55,NE,44,4.6,4.6,74,0.00,CLR,BKN,0.00,0.0,WeatherDisplay:10.37,2013-02-21 08:47:00,
2013-02-21 02:53:00,-7.2,-13.3,30.54,NE,40,4.6,4.6,74,0.00,CLR,BKN,0.00,0.0,WeatherDisplay:10.37,2013-02-21 08:53:00,
2013-02-21 02:58:00,-7.2,-13.3,30.54,NE,42,5.0,5.0,74,0.00,CLR,BKN,0.00,0.0,WeatherDisplay:10.37,2013-02-21 08:58:00,
2013-02-21 03:03:00,-7.5,-13.6,30.54,NE,42,3.5,3.5,74,0.00,CLR,BKN,0.00,0.0,WeatherDisplay:10.37,2013-02-21 09:03:00,
2013-02-21 03:08:00,-7.5,-13.6,30.55,NE,42,3.5,3.5,74,0.00,CLR,BKN,0.00,0.0,WeatherDisplay:10.37,2013-02-21 09:08:00,
2013-02-21 03:13:00,-7.7,-13.8,30.55,NE,42,4.0,4.0,74,0.00,CLR,BKN,0.00,0.0,WeatherDisplay:10.37,2013-02-21 09:13:00,
2013-02-21 03:18:00,-7.7,-14.1,30.55,NE,42,4.0,4.0,73,0.00,CLR,BKN,0.00,0.0,WeatherDisplay:10.37,2013-02-21 09:18:00,
2013-02-21 03:23:00,-7.9,-14.3,30.55,NE,42,3.5,3.5,73,0.00,CLR,BKN,0.00,0.0,WeatherDisplay:10.37,2013-02-21 09:23:00,
2013-02-21 03:29:00,-8.2,-14.8,30.55,NE,42,3.5,3.5,72,0.00,CLR,BKN,0.00,0.0,WeatherDisplay:10.37,2013-02-21 09:29:00,
2013-02-21 03:34:00,-8.2,-14.8,30.55,NE,42,4.0,4.0,72,0.00,CLR,BKN,0.00,0.0,WeatherDisplay:10.37,2013-02-21 09:34:00,
2013-02-21 03:39:00,-8.4,-15.0,30.56,NE,42,4.6,4.6,72,0.00,CLR,BKN,0.00,0.0,WeatherDisplay:10.37,2013-02-21 09:39:00,
2013-02-21 03:44:00,-8.6,-15.2,30.56,NE,43,5.0,5.0,72,0.00,CLR,BKN,0.00,0.0,WeatherDisplay:10.37,2013-02-21 09:44:00,
2013-02-21 03:49:00,-8.9,-15.5,30.56,NE,48,5.0,5.0,72,0.00,CLR,BKN,0.00,0.0,WeatherDisplay:10.37,2013-02-21 09:49:00,
2013-02-21 03:54:00,-8.9,-15.5,30.56,NE,52,5.0,5.0,72,0.00,CLR,BKN,0.00,0.0,WeatherDisplay:10.37,2013-02-21 09:54:00,
2013-02-21 03:59:00,-9.1,-15.7,30.56,NE,54,4.6,4.6,72,0.00,CLR,BKN,0.00,0.0,WeatherDisplay:10.37,2013-02-21 09:59:00,
2013-02-21 04:04:00,-9.1,-15.7,30.56,NE,56,4.6,4.6,72,0.00,CLR,BKN,0.00,0.0,WeatherDisplay:10.37,2013-02-21 10:04:00,
2013-02-21 04:10:00,-9.3,-15.9,30.56,ENE,58,5.8,5.8,72,0.00,CLR,BKN,0.00,0.0,WeatherDisplay:10.37,2013-02-21 10:10:00,
2013-02-21 04:15:00,-9.6,-16.2,30.57,ENE,62,4.6,4.6,72,0.00,CLR,BKN,0.00,0.0,WeatherDisplay:10.37,2013-02-21 10:15:00,
2013-02-21 04:20:00,-9.6,-16.2,30.57,ENE,66,5.8,5.8,72,0.00,CLR,BKN,0.00,0.0,WeatherDisplay:10.37,2013-02-21 10:20:00,
2013-02-21 04:25:00,-9.6,-16.2,30.58,ENE,68,4.6,4.6,72,0.00,CLR,BKN,0.00,0.0,WeatherDisplay:10.37,2013-02-21 10:25:00,
2013-02-21 04:30:00,-9.8,-16.4,30.58,ENE,68,5.8,5.8,72,0.00,CLR,BKN,0.00,0.0,WeatherDisplay:10.37,2013-02-21 10:30:00,
2013-02-21 04:35:00,-9.8,-16.4,30.58,ENE,69,4.6,4.6,72,0.00,CLR,BKN,0.00,0.0,WeatherDisplay:10.37,2013-02-21 10:35:00,
2013-02-21 04:40:00,-10.0,-16.6,30.58,ENE,69,4.6,4.6,72,0.00,CLR,BKN,0.00,0.0,WeatherDisplay:10.37,2013-02-21 10:40:00,
2013-02-21 04:46:00,-10.0,-16.6,30.59,ENE,69,4.6,4.6,72,0.00,CLR,BKN,0.00,0.0,WeatherDisplay:10.37,2013-02-21 10:46:00,
2013-02-21 04:51:00,-10.0,-16.6,30.59,ENE,69,5.0,5.0,72,0.00,CLR,BKN,0.00,0.0,WeatherDisplay:10.37,2013-02-21 10:51:00,
2013-02-21 04:56:00,-10.3,-16.8,30.59,ENE,69,5.0,5.0,72,0.00,CLR,BKN,0.00,0.0,WeatherDisplay:10.37,2013-02-21 10:56:00,
2013-02-21 05:01:00,-10.3,-16.8,30.59,ENE,75,7.0,7.0,72,0.00,CLR,BKN,0.00,0.0,WeatherDisplay:10.37,2013-02-21 11:01:00,
2013-02-21 05:06:00,-10.3,-16.6,30.59,ENE,78,9.0,9.0,73,0.00,CLR,BKN,0.00,0.0,WeatherDisplay:10.37,2013-02-21 11:06:00,
2013-02-21 05:11:00,-10.3,-16.6,30.58,ENE,73,11.5,11.5,73,0.00,CLR,BKN,0.00,0.0,WeatherDisplay:10.37,2013-02-21 11:11:00,
2013-02-21 05:16:00,-10.3,-16.3,30.58,ENE,76,11.5,11.5,74,0.00,CLR,BKN,0.00,0.0,WeatherDisplay:10.37,2013-02-21 11:16:00,
2013-02-21 05:21:00,-10.0,-15.8,30.58,ENE,69,11.5,11.5,75,0.00,CLR,BKN,0.00,0.0,WeatherDisplay:10.37,2013-02-21 11:21:00,
2013-02-21 05:27:00,-9.3,-14.6,30.57,East,81,11.5,11.5,77,0.00,CLR,BKN,0.00,0.0,WeatherDisplay:10.37,2013-02-21 11:27:00,
2013-02-21 05:32:00,-8.6,-13.4,30.58,East,98,11.5,11.5,79,0.00,CLR,BKN,0.00,0.0,WeatherDisplay:10.37,2013-02-21 11:32:00,
2013-02-21 05:37:00,-7.2,-11.2,30.57,ENE,61,10.4,10.4,82,0.00,CLR,BKN,0.00,0.0,WeatherDisplay:10.37,2013-02-21 11:37:00,
2013-02-21 05:42:00,-5.6,-9.4,30.57,NE,56,11.5,11.5,83,0.00,CLR,BKN,0.00,0.0,WeatherDisplay:10.37,2013-02-21 11:42:00,
2013-02-21 05:47:00,-4.3,-8.2,30.56,East,93,13.8,13.8,83,0.00,CLR,BKN,0.00,0.0,WeatherDisplay:10.37,2013-02-21 11:47:00,
2013-02-21 05:52:00,-3.1,-7.0,30.55,ENE,65,16.0,16.0,83,0.00,CLR,BKN,0.00,0.0,WeatherDisplay:10.37,2013-02-21 11:52:00,
2013-02-21 05:57:00,-1.6,-5.3,30.56,ENE,76,12.7,12.7,84,0.00,CLR,BKN,0.00,0.0,WeatherDisplay:10.37,2013-02-21 11:57:00,
2013-02-21 06:03:00,-0.2,-3.9,30.56,ENE,71,15.0,15.0,84,0.00,CLR,BKN,0.00,0.0,WeatherDisplay:10.37,2013-02-21 12:03:00,
2013-02-21 06:08:00,0.5,-3.4,30.56,East,79,10.4,10.4,83,0.00,CLR,BKN,0.00,0.0,WeatherDisplay:10.37,2013-02-21 12:08:00,
2013-02-21 06:13:00,1.1,-3.1,30.56,East,83,11.5,11.5,82,0.00,CLR,BKN,0.00,0.0,WeatherDisplay:10.37,2013-02-21 12:13:00,
2013-02-21 06:18:00,1.5,-2.7,30.55,East,86,9.0,9.0,82,0.00,CLR,BKN,0.00,0.0,WeatherDisplay:10.37,2013-02-21 12:18:00,
2013-02-21 06:23:00,1.7,-2.5,30.56,ENE,68,5.0,5.0,82,0.00,CLR,BKN,0.00,0.0,WeatherDisplay:10.37,2013-02-21 12:23:00,
2013-02-21 06:28:00,1.7,-2.8,30.55,NE,48,8.1,8.1,81,0.00,CLR,BKN,0.00,0.0,WeatherDisplay:10.37,2013-02-21 12:28:00,
2013-02-21 06:33:00,1.8,-2.7,30.55,ENE,76,9.2,9.2,81,0.00,CLR,BKN,0.00,0.0,WeatherDisplay:10.37,2013-02-21 12:33:00,
2013-02-21 06:38:00,1.8,-2.7,30.55,ENE,69,11.5,11.5,81,0.00,CLR,BKN,0.00,0.0,WeatherDisplay:10.37,2013-02-21 12:38:00,
2013-02-21 06:44:00,1.8,-2.7,30.55,ENE,77,6.9,6.9,81,0.00,CLR,BKN,0.00,0.0,WeatherDisplay:10.37,2013-02-21 12:44:00,
2013-02-21 06:49:00,1.8,-2.7,30.55,ENE,69,6.9,6.9,81,0.00,CLR,BKN,0.00,0.0,WeatherDisplay:10.37,2013-02-21 12:49:00,
2013-02-21 06:54:00,2.0,-2.5,30.54,ENE,73,9.2,9.2,81,0.00,CLR,BKN,0.00,0.0,WeatherDisplay:10.37,2013-02-21 12:54:00,
2013-02-21 06:59:00,2.4,-1.8,30.54,ENE,66,9.2,9.2,82,0.00,CLR,BKN,0.00,0.0,WeatherDisplay:10.37,2013-02-21 12:59:00,
2013-02-21 07:04:00,2.6,-1.6,30.53,ENE,73,9.0,9.0,82,0.00,CLR,BKN,0.00,0.0,WeatherDisplay:10.37,2013-02-21 13:04:00,
2013-02-21 07:09:00,3.0,-1.3,30.53,ENE,71,8.1,8.1,82,0.00,CLR,BKN,0.00,0.0,WeatherDisplay:10.37,2013-02-21 13:09:00,
2013-02-21 07:14:00,3.4,-0.9,30.53,ENE,69,11.5,11.5,82,0.00,CLR,BKN,0.00,0.0,WeatherDisplay:10.37,2013-02-21 13:14:00,
2013-02-21 07:20:00,3.9,-0.1,30.52,ENE,63,9.2,9.2,83,0.00,CLR,BKN,0.00,0.0,WeatherDisplay:10.37,2013-02-21 13:20:00,
2013-02-21 07:25:00,4.3,0.3,30.51,ENE,62,15.0,15.0,83,0.00,CLR,BKN,0.00,0.0,WeatherDisplay:10.37,2013-02-21 13:25:00,
2013-02-21 07:30:00,5.0,1.2,30.50,NE,55,8.0,15.0,84,0.00,CLR,BKN,0.00,0.0,WeatherDisplay:10.37,2013-02-21 13:30:00,
2013-02-21 07:35:00,5.8,2.0,30.50,NE,56,12.7,12.7,84,0.00,CLR,BKN,0.00,0.0,WeatherDisplay:10.37,2013-02-21 13:35:00,
2013-02-21 07:40:00,6.1,2.3,30.50,ENE,60,12.0,18.0,84,0.00,CLR,BKN,0.00,0.0,WeatherDisplay:10.37,2013-02-21 13:40:00,
2013-02-21 07:45:00,7.2,3.6,30.50,NNE,22,11.5,11.5,85,0.00,CLR,BKN,0.00,0.0,WeatherDisplay:10.37,2013-02-21 13:45:00,
2013-02-21 07:50:00,7.7,4.1,30.49,ENE,69,20.7,20.7,85,0.00,CLR,BKN,0.00,0.0,WeatherDisplay:10.37,2013-02-21 13:50:00,
2013-02-21 07:55:00,8.3,4.7,30.49,ENE,61,16.0,16.0,85,0.00,CLR,BKN,0.00,0.0,WeatherDisplay:10.37,2013-02-21 13:55:00,
2013-02-21 08:00:00,8.8,5.2,30.48,NE,38,17.3,17.3,85,0.00,OVC,BKN,0.00,0.0,WeatherDisplay:10.37,2013-02-21 14:00:00,
2013-02-21 08:05:00,9.2,5.6,30.48,NE,42,18.0,18.0,85,0.00,OVC,BKN,0.00,0.0,WeatherDisplay:10.37,2013-02-21 14:05:00,
2013-02-21 08:10:00,9.7,6.1,30.48,ENE,71,13.0,13.0,85,0.00,OVC,BKN,0.00,0.0,WeatherDisplay:10.37,2013-02-21 14:10:00,
2013-02-21 08:16:00,10.0,6.4,30.49,ENE,69,9.2,9.2,85,0.00,OVC,BKN,0.00,0.0,WeatherDisplay:10.37,2013-02-21 14:16:00,
2013-02-21 08:21:00,10.2,6.6,30.50,ENE,61,6.9,6.9,85,0.00,OVC,BKN,0.00,0.0,WeatherDisplay:10.37,2013-02-21 14:21:00,
2013-02-21 08:26:00,10.9,7.5,30.52,East,91,8.1,8.1,86,0.00,OVC,BKN,0.00,0.0,WeatherDisplay:10.37,2013-02-21 14:26:00,
2013-02-21 08:31:00,11.4,8.0,30.54,NE,54,11.5,11.5,86,0.00,OVC,BKN,0.00,0.0,WeatherDisplay:10.37,2013-02-21 14:31:00,
2013-02-21 08:36:00,12.1,8.7,30.56,ENE,78,10.4,10.4,86,0.00,OVC,BKN,0.00,0.0,WeatherDisplay:10.37,2013-02-21 14:36:00,
2013-02-21 08:41:00,12.6,9.2,30.57,South,177,4.6,4.6,86,0.00,OVC,BKN,0.00,0.0,WeatherDisplay:10.37,2013-02-21 14:41:00,
2013-02-21 08:46:00,12.9,9.2,30.59,South,172,6.0,6.0,85,0.00,OVC,BKN,0.00,0.0,WeatherDisplay:10.37,2013-02-21 14:46:00,
2013-02-21 08:51:00,13.5,9.8,30.59,SSE,148,5.8,5.8,85,0.00,OVC,BKN,0.00,0.0,WeatherDisplay:10.37,2013-02-21 14:51:00,
2013-02-21 08:57:00,13.6,9.7,30.59,SE,128,5.8,5.8,84,0.00,OVC,BKN,0.00,0.0,WeatherDisplay:10.37,2013-02-21 14:57:00,
2013-02-21 09:02:00,13.3,9.4,30.58,ESE,102,5.8,5.8,84,0.00,OVC,BKN,0.00,0.0,WeatherDisplay:10.37,2013-02-21 15:02:00,
2013-02-21 09:07:00,13.1,8.9,30.58,East,85,3.5,3.5,83,0.00,OVC,BKN,0.00,0.0,WeatherDisplay:10.37,2013-02-21 15:07:00,
2013-02-21 09:12:00,13.3,9.1,30.58,East,88,5.8,5.8,83,0.00,OVC,BKN,0.00,0.0,WeatherDisplay:10.37,2013-02-21 15:12:00,
2013-02-21 09:17:00,13.6,9.1,30.58,East,79,3.5,3.5,82,0.00,OVC,BKN,0.00,0.0,WeatherDisplay:10.37,2013-02-21 15:17:00,
2013-02-21 09:22:00,14.3,9.3,30.58,East,80,4.6,4.6,80,0.00,OVC,BKN,0.00,0.0,WeatherDisplay:10.37,2013-02-21 15:22:00,
2013-02-21 09:27:00,14.9,9.6,30.57,ENE,65,8.1,8.1,79,0.00,OVC,BKN,0.00,0.0,WeatherDisplay:10.37,2013-02-21 15:27:00,
2013-02-21 09:33:00,15.4,9.2,30.58,ENE,63,6.0,6.0,76,0.00,OVC,BKN,0.00,0.0,WeatherDisplay:10.37,2013-02-21 15:33:00,
2013-02-21 09:38:00,15.6,9.4,30.58,East,81,4.0,4.0,76,0.00,OVC,BKN,0.00,0.0,WeatherDisplay:10.37,2013-02-21 15:38:00,
2013-02-21 09:43:00,15.6,8.5,30.57,NE,50,4.6,4.6,73,0.00,OVC,BKN,0.00,0.0,WeatherDisplay:10.37,2013-02-21 15:43:00,
2013-02-21 09:48:00,15.7,9.2,30.57,NE,53,4.0,4.0,75,0.00,OVC,BKN,0.00,0.0,WeatherDisplay:10.37,2013-02-21 15:48:00,
2013-02-21 09:53:00,15.4,8.6,30.57,NE,53,3.5,3.5,74,0.00,OVC,BKN,0.00,0.0,WeatherDisplay:10.37,2013-02-21 15:53:00,
2013-02-21 09:58:00,15.9,8.8,30.57,ENE,59,5.0,5.0,73,0.00,OVC,BKN,0.00,0.0,WeatherDisplay:10.37,2013-02-21 15:58:00,
2013-02-21 10:03:00,15.9,8.8,30.57,East,79,4.0,4.0,73,0.00,OVC,BKN,0.00,0.0,WeatherDisplay:10.37,2013-02-21 16:03:00,
2013-02-21 10:08:00,16.5,9.0,30.57,ESE,102,4.6,4.6,72,0.00,OVC,BKN,0.00,0.0,WeatherDisplay:10.37,2013-02-21 16:08:00,
2013-02-21 10:14:00,17.0,9.2,30.57,ESE,115,4.0,4.0,71,0.00,OVC,BKN,0.00,0.0,WeatherDisplay:10.37,2013-02-21 16:14:00,
2013-02-21 10:19:00,17.3,9.5,30.57,East,100,6.9,6.9,71,0.00,OVC,BKN,0.00,0.0,WeatherDisplay:10.37,2013-02-21 16:19:00,
2013-02-21 10:24:00,17.5,9.4,30.56,East,100,5.0,5.0,70,0.00,OVC,BKN,0.00,0.0,WeatherDisplay:10.37,2013-02-21 16:24:00,
2013-02-21 10:29:00,18.0,9.5,30.55,East,89,5.8,5.8,69,0.00,OVC,BKN,0.00,0.0,WeatherDisplay:10.37,2013-02-21 16:29:00,
2013-02-21 10:34:00,18.0,9.2,30.54,ENE,58,6.9,6.9,68,0.00,OVC,BKN,0.00,0.0,WeatherDisplay:10.37,2013-02-21 16:34:00,
2013-02-21 10:39:00,18.3,9.2,30.54,East,81,11.5,11.5,67,0.00,OVC,BKN,0.00,0.0,WeatherDisplay:10.37,2013-02-21 16:39:00,
2013-02-21 10:44:00,18.6,9.1,30.54,East,98,9.2,9.2,66,0.00,OVC,BKN,0.00,0.0,WeatherDisplay:10.37,2013-02-21 16:44:00,
2013-02-21 10:50:00,18.3,8.8,30.54,NE,41,11.0,11.0,66,0.00,OVC,BKN,0.00,0.0,WeatherDisplay:10.37,2013-02-21 16:50:00,
2013-02-21 10:55:00,18.8,9.0,30.53,East,85,8.1,8.1,65,0.00,OVC,BKN,0.00,0.0,WeatherDisplay:10.37,2013-02-21 16:55:00,
2013-02-21 11:00:00,19.1,8.9,30.53,ENE,61,9.2,9.2,64,0.00,OVC,BKN,0.00,0.0,WeatherDisplay:10.37,2013-02-21 17:00:00,
2013-02-21 11:05:00,19.7,9.5,30.52,ENE,77,13.8,13.8,64,0.00,OVC,BKN,0.00,0.0,WeatherDisplay:10.37,2013-02-21 17:05:00,
2013-02-21 11:10:00,20.3,9.7,30.53,East,88,8.1,8.1,63,0.00,OVC,BKN,0.00,0.0,WeatherDisplay:10.37,2013-02-21 17:10:00,
2013-02-21 11:15:00,20.2,9.6,30.53,ENE,57,6.9,6.9,63,0.00,OVC,BKN,0.00,0.0,WeatherDisplay:10.37,2013-02-21 17:15:00,
2013-02-21 11:20:00,20.6,9.3,30.53,ENE,70,6.9,6.9,61,0.00,OVC,BKN,0.00,0.0,WeatherDisplay:10.37,2013-02-21 17:20:00,
2013-02-21 11:25:00,20.6,10.0,30.53,NNE,15,8.0,8.0,63,0.00,OVC,BKN,0.00,0.0,WeatherDisplay:10.37,2013-02-21 17:25:00,
2013-02-21 11:31:00,21.0,9.6,30.53,ENE,63,5.8,5.8,61,0.00,OVC,BKN,0.00,0.0,WeatherDisplay:10.37,2013-02-21 17:31:00,
2013-02-21 11:36:00,21.1,10.1,30.53,East,84,9.0,9.0,62,0.00,OVC,BKN,0.00,0.0,WeatherDisplay:10.37,2013-02-21 17:36:00,
2013-02-21 11:41:00,21.4,10.4,30.53,ESE,122,4.6,4.6,62,0.00,OVC,BKN,0.00,0.0,WeatherDisplay:10.37,2013-02-21 17:41:00,
2013-02-21 11:46:00,21.8,10.8,30.52,East,81,6.0,6.0,62,0.00,OVC,BKN,0.00,0.0,WeatherDisplay:10.37,2013-02-21 17:46:00,
2013-02-21 11:51:00,21.9,9.7,30.53,NNE,26,8.0,8.0,59,0.00,OVC,BKN,0.00,0.0,WeatherDisplay:10.37,2013-02-21 17:51:00,
2013-02-21 11:56:00,22.2,10.4,30.53,East,81,9.2,9.2,60,0.00,OVC,BKN,0.00,0.0,WeatherDisplay:10.37,2013-02-21 17:56:00,
2013-02-21 12:01:00,21.9,9.7,30.53,ENE,78,3.5,3.5,59,0.00,OVC,BKN,0.00,0.0,WeatherDisplay:10.37,2013-02-21 18:01:00,
2013-02-21 12:07:00,22.2,10.0,30.53,East,96,5.8,5.8,59,0.00,OVC,BKN,0.00,0.0,WeatherDisplay:10.37,2013-02-21 18:07:00,
2013-02-21 12:12:00,22.9,11.1,30.53,ENE,77,5.8,5.9,60,0.00,OVC,BKN,0.00,0.0,WeatherDisplay:10.37,2013-02-21 18:12:00,
2013-02-21 12:17:00,23.2,11.0,30.53,East,81,9.0,9.0,59,0.00,OVC,BKN,0.00,0.0,WeatherDisplay:10.37,2013-02-21 18:17:00,
2013-02-21 12:22:00,23.3,10.3,30.52,ENE,67,6.9,6.9,57,0.00,OVC,BKN,0.00,0.0,WeatherDisplay:10.37,2013-02-21 18:22:00,
2013-02-21 12:27:00,23.3,10.7,30.51,East,91,5.8,5.8,58,0.00,OVC,BKN,0.00,0.0,WeatherDisplay:10.37,2013-02-21 18:27:00,
2013-02-21 12:32:00,23.8,10.8,30.52,East,81,5.8,5.8,57,0.00,OVC,BKN,0.00,0.0,WeatherDisplay:10.37,2013-02-21 18:32:00,
2013-02-21 12:37:00,24.1,10.6,30.51,East,97,9.2,9.2,56,0.00,OVC,BKN,0.00,0.0,WeatherDisplay:10.37,2013-02-21 18:37:00,
2013-02-21 12:42:00,24.7,10.8,30.50,ENE,77,5.0,5.0,55,0.00,OVC,BKN,0.00,0.0,WeatherDisplay:10.37,2013-02-21 18:42:00,
2013-02-21 12:48:00,25.0,11.5,30.51,NE,51,5.8,5.8,56,0.00,OVC,BKN,0.00,0.0,WeatherDisplay:10.37,2013-02-21 18:48:00,
2013-02-21 12:53:00,25.1,11.2,30.50,NE,43,7.0,7.0,55,0.00,OVC,BKN,0.00,0.0,WeatherDisplay:10.37,2013-02-21 18:53:00,
2013-02-21 12:58:00,25.3,11.4,30.50,East,85,7.0,7.0,55,0.00,OVC,BKN,0.00,0.0,WeatherDisplay:10.37,2013-02-21 18:58:00,
2013-02-21 13:03:00,25.3,11.4,30.49,NE,40,4.6,4.6,55,0.00,OVC,BKN,0.00,0.0,WeatherDisplay:10.37,2013-02-21 19:03:00,
2013-02-21 13:08:00,25.7,10.9,30.49,ESE,102,9.2,9.2,53,0.00,OVC,BKN,0.00,0.0,WeatherDisplay:10.37,2013-02-21 19:08:00,
2013-02-21 13:13:00,25.7,11.3,30.48,NE,52,9.2,9.2,54,0.00,OVC,BKN,0.00,0.0,WeatherDisplay:10.37,2013-02-21 19:13:00,
2013-02-21 13:18:00,25.7,11.3,30.48,East,95,11.5,11.5,54,0.00,OVC,BKN,0.00,0.0,WeatherDisplay:10.37,2013-02-21 19:18:00,
2013-02-21 13:24:00,25.6,11.7,30.47,NE,48,7.0,7.0,55,0.00,OVC,BKN,0.00,0.0,WeatherDisplay:10.37,2013-02-21 19:24:00,
2013-02-21 13:29:00,26.4,12.4,30.47,ENE,65,7.0,7.0,55,0.00,OVC,BKN,0.00,0.0,WeatherDisplay:10.37,2013-02-21 19:29:00,
2013-02-21 13:34:00,26.7,12.3,30.46,ENE,58,8.1,8.1,54,0.00,OVC,BKN,0.00,0.0,WeatherDisplay:10.37,2013-02-21 19:34:00,
2013-02-21 13:39:00,27.0,13.0,30.46,East,80,10.4,10.4,55,0.00,OVC,BKN,0.00,0.0,WeatherDisplay:10.37,2013-02-21 19:39:00,
2013-02-21 13:44:00,27.0,11.7,30.45,NE,46,9.2,9.2,52,0.00,OVC,BKN,0.00,0.0,WeatherDisplay:10.37,2013-02-21 19:44:00,
2013-02-21 13:49:00,27.2,12.3,30.45,NE,50,9.2,9.2,53,0.00,OVC,BKN,0.00,0.0,WeatherDisplay:10.37,2013-02-21 19:49:00,
2013-02-21 13:54:00,26.6,12.2,30.45,NE,38,9.2,9.2,54,0.00,OVC,BKN,0.00,0.0,WeatherDisplay:10.37,2013-02-21 19:54:00,
2013-02-21 13:59:00,27.0,13.8,30.45,NE,51,9.2,9.2,57,0.00,OVC,BKN,0.00,0.0,WeatherDisplay:10.37,2013-02-21 19:59:00,
2013-02-21 14:05:00,26.7,12.3,30.45,ENE,74,8.0,8.0,54,0.00,OVC,BKN,0.00,0.0,WeatherDisplay:10.37,2013-02-21 20:05:00,
2013-02-21 14:10:00,26.5,12.5,30.46,NE,55,5.0,10.0,55,0.00,OVC,BKN,0.00,0.0,WeatherDisplay:10.37,2013-02-21 20:10:00,
2013-02-21 14:15:00,26.3,12.7,30.45,NE,48,8.1,8.1,56,0.00,OVC,BKN,0.00,0.0,WeatherDisplay:10.37,2013-02-21 20:15:00,
2013-02-21 14:20:00,26.3,12.7,30.45,NE,38,10.4,10.4,56,0.00,OVC,BKN,0.00,0.0,WeatherDisplay:10.37,2013-02-21 20:20:00,
2013-02-21 14:25:00,26.4,12.4,30.44,NE,42,9.0,9.0,55,0.00,OVC,BKN,0.01,0.0,WeatherDisplay:10.37,2013-02-21 20:25:00,
2013-02-21 14:30:00,26.4,12.4,30.44,NE,54,6.0,6.0,55,0.01,RA,BKN,0.01,0.0,WeatherDisplay:10.37,2013-02-21 20:30:00,
2013-02-21 14:35:00,26.4,12.8,30.44,ENE,63,11.5,11.5,56,0.01,RA,BKN,0.01,0.0,WeatherDisplay:10.37,2013-02-21 20:35:00,
2013-02-21 14:41:00,26.1,12.9,30.44,ENE,59,12.0,12.0,57,0.01,OVC,BKN,0.01,0.0,WeatherDisplay:10.37,2013-02-21 20:41:00,
2013-02-21 14:46:00,25.6,12.5,30.43,ENE,67,13.8,13.8,57,0.01,OVC,BKN,0.01,0.0,WeatherDisplay:10.37,2013-02-21 20:46:00,
2013-02-21 14:51:00,25.3,12.6,30.43,NNE,13,8.1,8.1,58,0.01,OVC,BKN,0.01,0.0,WeatherDisplay:10.37,2013-02-21 20:51:00,
2013-02-21 14:56:00,25.4,12.7,30.43,NE,44,12.7,12.7,58,0.01,OVC,BKN,0.01,0.0,WeatherDisplay:10.37,2013-02-21 20:56:00,
2013-02-21 15:01:00,25.1,12.8,30.43,NE,55,13.0,13.0,59,0.01,OVC,BKN,0.01,0.0,WeatherDisplay:10.37,2013-02-21 21:01:00,
2013-02-21 15:06:00,24.8,12.9,30.42,NE,52,9.2,9.2,60,0.01,OVC,BKN,0.01,0.0,WeatherDisplay:10.37,2013-02-21 21:06:00,
2013-02-21 15:11:00,24.8,13.2,30.42,NE,38,11.5,11.5,61,0.01,OVC,BKN,0.01,0.0,WeatherDisplay:10.37,2013-02-21 21:11:00,
2013-02-21 15:16:00,24.7,12.8,30.42,NE,47,8.0,8.0,60,0.01,OVC,BKN,0.01,0.0,WeatherDisplay:10.37,2013-02-21 21:16:00,
2013-02-21 15:22:00,24.7,13.1,30.43,NE,48,11.5,11.5,61,0.01,OVC,BKN,0.01,0.0,WeatherDisplay:10.37,2013-02-21 21:22:00,
2013-02-21 15:27:00,24.5,13.0,30.43,ENE,59,10.4,10.4,61,0.00,OVC,BKN,0.01,0.0,WeatherDisplay:10.37,2013-02-21 21:27:00,
2013-02-21 15:32:00,24.1,12.6,30.43,NNE,32,15.0,15.0,61,0.00,OVC,BKN,0.01,0.0,WeatherDisplay:10.37,2013-02-21 21:32:00,
2013-02-21 15:37:00,23.8,13.0,30.43,NE,47,12.7,12.7,63,0.00,OVC,BKN,0.01,0.0,WeatherDisplay:10.37,2013-02-21 21:37:00,
2013-02-21 15:42:00,23.8,13.0,30.42,ENE,66,11.5,11.5,63,0.00,OVC,BKN,0.01,0.0,WeatherDisplay:10.37,2013-02-21 21:42:00,
2013-02-21 15:47:00,23.5,13.1,30.43,ENE,61,10.4,10.4,64,0.00,OVC,BKN,0.01,0.0,WeatherDisplay:10.37,2013-02-21 21:47:00,
2013-02-21 15:52:00,23.3,13.3,30.42,ENE,75,9.2,9.2,65,0.00,OVC,BKN,0.01,0.0,WeatherDisplay:10.37,2013-02-21 21:52:00,
2013-02-21 15:58:00,23.3,13.3,30.42,NNE,23,10.4,10.4,65,0.00,OVC,BKN,0.01,0.0,WeatherDisplay:10.37,2013-02-21 21:58:00,
2013-02-21 16:03:00,23.3,13.3,30.42,NE,38,11.5,11.5,65,0.00,CLR,BKN,0.01,0.0,WeatherDisplay:10.37,2013-02-21 22:03:00,
2013-02-21 16:08:00,23.0,13.3,30.43,NNE,28,10.4,10.4,66,0.00,CLR,BKN,0.01,0.0,WeatherDisplay:10.37,2013-02-21 22:08:00,
2013-02-21 16:13:00,22.7,13.4,30.42,NNE,15,13.8,13.8,67,0.00,CLR,BKN,0.01,0.0,WeatherDisplay:10.37,2013-02-21 22:13:00,
2013-02-21 16:18:00,22.5,13.5,30.42,NE,35,12.7,12.7,68,0.00,CLR,BKN,0.01,0.0,WeatherDisplay:10.37,2013-02-21 22:18:00,
2013-02-21 16:23:00,22.5,13.5,30.42,NE,35,11.5,11.5,68,0.00,CLR,BKN,0.01,0.0,WeatherDisplay:10.37,2013-02-21 22:23:00,
2013-02-21 16:28:00,22.4,13.4,30.42,NE,36,8.1,8.1,68,0.00,CLR,BKN,0.01,0.0,WeatherDisplay:10.37,2013-02-21 22:28:00,
2013-02-21 16:33:00,22.2,13.6,30.42,NNE,20,8.1,8.1,69,0.00,CLR,BKN,0.01,0.0,WeatherDisplay:10.37,2013-02-21 22:33:00,
2013-02-21 16:39:00,21.9,13.9,30.42,NNE,17,11.5,11.5,71,0.00,CLR,BKN,0.01,0.0,WeatherDisplay:10.37,2013-02-21 22:39:00,
2013-02-21 16:44:00,21.6,14.0,30.43,NE,38,9.2,9.2,72,0.00,CLR,BKN,0.01,0.0,WeatherDisplay:10.37,2013-02-21 22:44:00,
2013-02-21 16:49:00,21.4,14.1,30.42,NE,45,8.1,8.1,73,0.00,CLR,BKN,0.01,0.0,WeatherDisplay:10.37,2013-02-21 22:49:00,
2013-02-21 16:54:00,21.3,14.3,30.42,NE,34,11.5,11.5,74,0.00,CLR,BKN,0.01,0.0,WeatherDisplay:10.37,2013-02-21 22:54:00,
2013-02-21 16:59:00,21.0,14.0,30.42,NE,54,8.1,8.1,74,0.00,CLR,BKN,0.01,0.0,WeatherDisplay:10.37,2013-02-21 22:59:00,
2013-02-21 17:04:00,20.6,13.9,30.42,NE,36,9.2,9.2,75,0.00,CLR,BKN,0.01,0.0,WeatherDisplay:10.37,2013-02-21 23:04:00,
2013-02-21 17:09:00,20.5,13.8,30.42,NE,34,10.0,10.0,75,0.00,CLR,BKN,0.01,0.0,WeatherDisplay:10.37,2013-02-21 23:09:00,
2013-02-21 17:14:00,20.3,13.9,30.42,ENE,63,12.7,12.7,76,0.00,CLR,BKN,0.01,0.0,WeatherDisplay:10.37,2013-02-21 23:14:00,
2013-02-21 17:20:00,20.2,13.8,30.42,NNE,26,8.1,8.1,76,0.00,CLR,BKN,0.01,0.0,WeatherDisplay:10.37,2013-02-21 23:20:00,
2013-02-21 17:25:00,20.0,13.6,30.42,NNE,23,4.6,4.6,76,0.00,CLR,BKN,0.01,0.0,WeatherDisplay:10.37,2013-02-21 23:25:00,
2013-02-21 17:30:00,19.9,13.9,30.41,NE,37,8.1,8.1,77,0.00,CLR,BKN,0.01,0.0,WeatherDisplay:10.37,2013-02-21 23:30:00,
2013-02-21 17:35:00,19.5,13.5,30.42,NNE,21,8.1,8.1,77,0.00,CLR,BKN,0.01,0.0,WeatherDisplay:10.37,2013-02-21 23:35:00,
2013-02-21 17:40:00,19.4,13.7,30.42,North,11,10.4,10.4,78,0.00,CLR,BKN,0.01,0.0,WeatherDisplay:10.37,2013-02-21 23:40:00,
2013-02-21 17:45:00,19.2,13.8,30.41,NE,38,11.5,11.5,79,0.00,CLR,BKN,0.01,0.0,WeatherDisplay:10.37,2013-02-21 23:45:00,
2013-02-21 17:50:00,19.1,13.9,30.41,NNE,13,13.8,13.8,80,0.00,CLR,BKN,0.01,0.0,WeatherDisplay:10.37,2013-02-21 23:50:00,
2013-02-21 17:56:00,18.9,13.7,30.41,NNE,33,9.2,9.2,80,0.00,CLR,BKN,0.01,0.0,WeatherDisplay:10.37,2013-02-21 23:56:00,
2013-02-21 18:01:00,18.8,13.7,30.41,NNE,29,9.2,9.2,80,0.00,CLR,BKN,0.01,0.0,WeatherDisplay:10.37,2013-02-22 00:01:00,
2013-02-21 18:06:00,18.6,13.7,30.41,NNE,21,8.1,8.1,81,0.00,CLR,BKN,0.01,0.0,WeatherDisplay:10.37,2013-02-22 00:06:00,
2013-02-21 18:11:00,18.4,13.8,30.41,ENE,60,9.2,9.2,82,0.00,CLR,BKN,0.01,0.0,WeatherDisplay:10.37,2013-02-22 00:11:00,
2013-02-21 18:16:00,18.3,13.7,30.40,NNE,29,9.0,9.0,82,0.00,CLR,BKN,0.01,0.0,WeatherDisplay:10.37,2013-02-22 00:16:00,
2013-02-21 18:21:00,18.3,14.0,30.40,NNE,18,9.2,9.2,83,0.00,CLR,BKN,0.01,0.0,WeatherDisplay:10.37,2013-02-22 00:21:00,
2013-02-21 18:26:00,18.3,14.3,30.39,North,8,11.5,11.5,84,0.00,CLR,BKN,0.01,0.0,WeatherDisplay:10.37,2013-02-22 00:26:00,
2013-02-21 18:31:00,18.3,14.3,30.39,NE,46,8.1,8.1,84,0.00,CLR,BKN,0.01,0.0,WeatherDisplay:10.37,2013-02-22 00:31:00,
2013-02-21 18:37:00,18.4,14.4,30.39,NNE,31,10.0,10.0,84,0.00,CLR,BKN,0.01,0.0,WeatherDisplay:10.37,2013-02-22 00:37:00,
2013-02-21 18:42:00,18.4,14.4,30.40,NE,54,11.5,11.5,84,0.00,CLR,BKN,0.01,0.0,WeatherDisplay:10.37,2013-02-22 00:42:00,
2013-02-21 18:47:00,18.4,14.6,30.39,North,354,11.5,11.5,85,0.00,CLR,BKN,0.01,0.0,WeatherDisplay:10.37,2013-02-22 00:47:00,
2013-02-21 18:52:00,18.4,14.6,30.38,NNE,19,12.7,12.7,85,0.00,CLR,BKN,0.01,0.0,WeatherDisplay:10.37,2013-02-22 00:52:00,
2013-02-21 18:57:00,18.4,14.6,30.38,NE,53,11.5,11.5,85,0.00,CLR,BKN,0.01,0.0,WeatherDisplay:10.37,2013-02-22 00:57:00,
2013-02-21 19:02:00,18.4,14.6,30.37,NNE,20,6.9,6.9,85,0.00,CLR,BKN,0.01,0.0,WeatherDisplay:10.37,2013-02-22 01:02:00,
2013-02-21 19:07:00,18.4,14.6,30.37,NE,53,11.5,11.5,85,0.00,CLR,BKN,0.01,0.0,WeatherDisplay:10.37,2013-02-22 01:07:00,
2013-02-21 19:13:00,18.4,14.9,30.36,ENE,59,9.2,9.2,86,0.00,CLR,BKN,0.01,0.0,WeatherDisplay:10.37,2013-02-22 01:13:00,
2013-02-21 19:18:00,18.4,14.9,30.37,ENE,77,9.2,9.2,86,0.00,CLR,BKN,0.01,0.0,WeatherDisplay:10.37,2013-02-22 01:18:00,
2013-02-21 19:23:00,18.4,14.9,30.37,NNE,26,13.0,13.0,86,0.00,CLR,BKN,0.01,0.0,WeatherDisplay:10.37,2013-02-22 01:23:00,
2013-02-21 19:28:00,18.3,14.8,30.37,NNE,20,11.5,11.5,86,0.00,CLR,BKN,0.01,0.0,WeatherDisplay:10.37,2013-02-22 01:28:00,
2013-02-21 19:33:00,18.1,14.6,30.36,ENE,61,12.7,12.7,86,0.00,CLR,BKN,0.01,0.0,WeatherDisplay:10.37,2013-02-22 01:33:00,
2013-02-21 19:39:00,18.1,14.6,30.36,NNE,32,6.9,6.9,86,0.00,CLR,BKN,0.01,0.0,WeatherDisplay:10.37,2013-02-22 01:39:00,
2013-02-21 19:44:00,18.1,14.6,30.36,ENE,68,11.5,11.5,86,0.00,CLR,BKN,0.01,0.0,WeatherDisplay:10.37,2013-02-22 01:44:00,
2013-02-21 19:49:00,18.0,14.5,30.36,NE,47,10.4,10.4,86,0.00,CLR,BKN,0.01,0.0,WeatherDisplay:10.37,2013-02-22 01:49:00,
2013-02-21 19:54:00,18.0,14.5,30.36,NNE,27,12.7,12.7,86,0.00,CLR,BKN,0.01,0.0,WeatherDisplay:10.37,2013-02-22 01:54:00,
2013-02-21 19:59:00,18.0,14.5,30.36,ENE,72,8.1,8.1,86,0.00,CLR,BKN,0.01,0.0,WeatherDisplay:10.37,2013-02-22 01:59:00,
2013-02-21 20:04:00,17.8,14.3,30.35,ENE,63,6.0,6.0,86,0.00,CLR,BKN,0.01,0.0,WeatherDisplay:10.37,2013-02-22 02:04:00,
2013-02-21 20:09:00,17.7,14.2,30.35,NE,50,10.4,10.4,86,0.00,CLR,BKN,0.01,0.0,WeatherDisplay:10.37,2013-02-22 02:09:00,
2013-02-21 20:14:00,17.7,14.2,30.35,ENE,63,10.4,10.4,86,0.00,CLR,BKN,0.01,0.0,WeatherDisplay:10.37,2013-02-22 02:14:00,
2013-02-21 20:20:00,17.7,14.2,30.35,NE,35,9.0,9.0,86,0.00,CLR,BKN,0.01,0.0,WeatherDisplay:10.37,2013-02-22 02:20:00,
2013-02-21 20:25:00,17.5,14.0,30.35,East,87,10.4,10.4,86,0.00,CLR,BKN,0.01,0.0,WeatherDisplay:10.37,2013-02-22 02:25:00,
2013-02-21 20:30:00,17.5,14.0,30.35,NE,56,6.0,12.0,86,0.00,CLR,BKN,0.01,0.0,WeatherDisplay:10.37,2013-02-22 02:30:00,
2013-02-21 20:35:00,17.3,13.8,30.35,NE,45,8.1,8.1,86,0.00,CLR,BKN,0.01,0.0,WeatherDisplay:10.37,2013-02-22 02:35:00,
2013-02-21 20:40:00,17.3,13.8,30.35,NE,55,10.4,10.4,86,0.00,CLR,BKN,0.01,0.0,WeatherDisplay:10.37,2013-02-22 02:40:00,
2013-02-21 20:45:00,17.2,13.7,30.35,ENE,63,6.9,6.9,86,0.00,CLR,BKN,0.01,0.0,WeatherDisplay:10.37,2013-02-22 02:45:00,
2013-02-21 20:50:00,17.2,13.7,30.34,ENE,63,10.4,10.4,86,0.00,CLR,BKN,0.01,0.0,WeatherDisplay:10.37,2013-02-22 02:50:00,
2013-02-21 20:55:00,17.2,13.5,30.34,NE,56,11.5,11.5,85,0.00,CLR,BKN,0.01,0.0,WeatherDisplay:10.37,2013-02-22 02:55:00,
2013-02-21 21:00:00,17.0,13.3,30.34,ENE,74,8.1,8.1,85,0.00,CLR,BKN,0.01,0.0,WeatherDisplay:10.37,2013-02-22 03:00:00,
2013-02-21 21:05:00,17.0,13.5,30.33,ENE,58,9.2,9.2,86,0.00,CLR,BKN,0.01,0.0,WeatherDisplay:10.37,2013-02-22 03:05:00,
2013-02-21 21:11:00,16.9,13.2,30.33,ENE,64,11.5,11.5,85,0.00,CLR,BKN,0.01,0.0,WeatherDisplay:10.37,2013-02-22 03:11:00,
2013-02-21 21:16:00,16.9,13.4,30.32,East,85,10.4,10.4,86,0.00,CLR,BKN,0.01,0.0,WeatherDisplay:10.37,2013-02-22 03:16:00,
2013-02-21 21:21:00,16.9,13.4,30.32,ENE,72,9.0,9.0,86,0.00,CLR,BKN,0.01,0.0,WeatherDisplay:10.37,2013-02-22 03:21:00,
2013-02-21 21:26:00,16.9,13.4,30.32,ENE,75,11.5,11.5,86,0.00,CLR,BKN,0.01,0.0,WeatherDisplay:10.37,2013-02-22 03:26:00,
2013-02-21 21:31:00,16.9,13.4,30.32,ENE,73,11.0,11.0,86,0.00,CLR,BKN,0.01,0.0,WeatherDisplay:10.37,2013-02-22 03:31:00,
2013-02-21 21:36:00,16.9,13.4,30.31,ENE,59,12.0,12.0,86,0.00,CLR,BKN,0.01,0.0,WeatherDisplay:10.37,2013-02-22 03:36:00,
2013-02-21 21:41:00,16.9,13.4,30.32,East,87,10.4,10.4,86,0.00,CLR,BKN,0.01,0.0,WeatherDisplay:10.37,2013-02-22 03:41:00,
2013-02-21 21:47:00,17.0,13.5,30.31,ENE,60,9.2,9.2,86,0.00,CLR,BKN,0.01,0.0,WeatherDisplay:10.37,2013-02-22 03:47:00,
2013-02-21 21:52:00,17.0,13.5,30.31,NE,54,12.0,12.0,86,0.00,CLR,BKN,0.01,0.0,WeatherDisplay:10.37,2013-02-22 03:52:00,
2013-02-21 21:57:00,17.0,13.5,30.30,East,81,8.1,8.1,86,0.00,CLR,BKN,0.01,0.0,WeatherDisplay:10.37,2013-02-22 03:57:00,
2013-02-21 22:02:00,17.0,13.5,30.30,ENE,59,10.4,10.4,86,0.00,CLR,BKN,0.01,0.0,WeatherDisplay:10.37,2013-02-22 04:02:00,
2013-02-21 22:07:00,17.0,13.5,30.30,NE,52,12.7,12.7,86,0.00,CLR,BKN,0.01,0.0,WeatherDisplay:10.37,2013-02-22 04:07:00,
2013-02-21 22:12:00,17.0,13.5,30.30,ENE,60,9.2,9.2,86,0.00,CLR,BKN,0.01,0.0,WeatherDisplay:10.37,2013-02-22 04:12:00,
2013-02-21 22:17:00,17.0,13.5,30.30,NE,50,11.5,11.5,86,0.00,CLR,BKN,0.01,0.0,WeatherDisplay:10.37,2013-02-22 04:17:00,
2013-02-21 22:22:00,17.2,13.7,30.29,ENE,67,11.0,11.0,86,0.00,CLR,BKN,0.01,0.0,WeatherDisplay:10.37,2013-02-22 04:22:00,
2013-02-21 22:28:00,17.2,14.0,30.29,NE,55,12.7,12.7,87,0.00,CLR,BKN,0.01,0.0,WeatherDisplay:10.37,2013-02-22 04:28:00,
2013-02-21 22:33:00,17.2,14.0,30.28,ENE,67,9.2,9.2,87,0.00,CLR,BKN,0.01,0.0,WeatherDisplay:10.37,2013-02-22 04:33:00,
2013-02-21 22:38:00,17.2,14.0,30.28,ENE,77,11.5,11.5,87,0.00,CLR,BKN,0.01,0.0,WeatherDisplay:10.37,2013-02-22 04:38:00,
2013-02-21 22:43:00,17.2,14.0,30.27,East,81,12.7,12.7,87,0.00,CLR,BKN,0.01,0.0,WeatherDisplay:10.37,2013-02-22 04:43:00,
2013-02-21 22:48:00,17.2,14.0,30.27,ENE,74,10.4,10.4,87,0.00,CLR,BKN,0.01,0.0,WeatherDisplay:10.37,2013-02-22 04:48:00,
2013-02-21 22:53:00,17.2,14.0,30.27,ENE,61,11.5,11.5,87,0.00,CLR,BKN,0.01,0.0,WeatherDisplay:10.37,2013-02-22 04:53:00,
2013-02-21 22:58:00,17.2,14.0,30.26,NE,53,11.5,11.5,87,0.00,CLR,BKN,0.01,0.0,WeatherDisplay:10.37,2013-02-22 04:58:00,
2013-02-21 23:00:00,17.2,14.0,30.26,ENE,66,11.5,11.5,87,0.00,CLR,BKN,0.01,0.0,WeatherDisplay:10.37,2013-02-22 05:00:00,
2013-02-21 23:01:00,17.2,14.0,30.26,NE,46,13.0,13.0,87,0.00,CLR,BKN,0.01,0.0,WeatherDisplay:10.37,2013-02-22 05:01:00,
2013-02-21 23:06:00,17.2,14.0,30.26,NE,53,9.2,9.2,87,0.00,CLR,BKN,0.01,0.0,WeatherDisplay:10.37,2013-02-22 05:06:00,
2013-02-21 23:11:00,17.2,14.0,30.26,ENE,64,9.2,9.2,87,0.00,CLR,BKN,0.01,0.0,WeatherDisplay:10.37,2013-02-22 05:11:00,
2013-02-21 23:16:00,17.2,14.0,30.26,ENE,73,11.5,11.5,87,0.00,CLR,BKN,0.01,0.0,WeatherDisplay:10.37,2013-02-22 05:16:00,
2013-02-21 23:22:00,17.2,14.0,30.26,NE,45,11.5,11.5,87,0.00,CLR,BKN,0.01,0.0,WeatherDisplay:10.37,2013-02-22 05:22:00,
2013-02-21 23:27:00,17.2,14.0,30.26,ENE,65,10.4,10.4,87,0.00,CLR,BKN,0.01,0.0,WeatherDisplay:10.37,2013-02-22 05:27:00,
2013-02-21 23:32:00,17.2,14.0,30.25,ENE,73,6.9,6.9,87,0.00,CLR,BKN,0.01,0.0,WeatherDisplay:10.37,2013-02-22 05:32:00,
2013-02-21 23:37:00,17.2,14.0,30.25,ENE,65,7.0,7.0,87,0.00,CLR,BKN,0.01,0.0,WeatherDisplay:10.37,2013-02-22 05:37:00,
2013-02-21 23:42:00,17.3,14.1,30.25,NE,54,12.0,12.0,87,0.00,CLR,BKN,0.01,0.0,WeatherDisplay:10.37,2013-02-22 05:42:00,
2013-02-21 23:47:00,17.3,14.1,30.25,East,86,9.2,9.2,87,0.00,CLR,BKN,0.01,0.0,WeatherDisplay:10.37,2013-02-22 05:47:00,
2013-02-21 23:52:00,17.3,14.1,30.25,ENE,67,9.2,9.2,87,0.00,CLR,BKN,0.01,0.0,WeatherDisplay:10.37,2013-02-22 05:52:00,
2013-02-21 23:57:00,17.3,14.1,30.25,ENE,78,5.8,5.8,87,0.00,CLR,BKN,0.01,0.0,WeatherDisplay:10.37,2013-02-22 05:57:00,